Time;durP1;ratioP1;P1;durP2;ratioP2;P2;SDS_P1;SDS_P2;PMS_P1;PMS_P2;Temp;Humidity;BMP_temperature;BMP_pressure;BME280_temperature;BME280_humidity;BME280_pressure;Samples;Min_cycle;Max_cycle;Signal;HPM_P1;HPM_P2
2023/04/14 00:01:17;;;;;;;6.38;2.55;;;1.10;99.90;;;;;;2041277;29;20197;-86
2023/04/14 00:02:38;;;;;;;25.20;3.80;;;1.10;99.90;;;;;;2038364;29;20193;-86
2023/04/14 00:03:59;;;;;;;5.75;2.55;;;1.20;99.90;;;;;;2046490;29;20208;-86
2023/04/14 00:05:20;;;;;;;10.05;2.67;;;1.10;99.90;;;;;;2041415;29;20189;-85
2023/04/14 00:06:41;;;;;;;6.97;2.95;;;1.40;99.90;;;;;;2043529;29;20218;-86
2023/04/14 00:08:02;;;;;;;8.15;2.72;;;1.00;99.90;;;;;;2050850;29;20180;-86
2023/04/14 00:09:24;;;;;;;5.72;2.25;;;1.00;99.90;;;;;;2048894;29;20220;-86
2023/04/14 00:10:45;;;;;;;12.70;2.85;;;1.00;99.90;;;;;;2038289;29;20220;-85
2023/04/14 00:12:06;;;;;;;7.72;3.42;;;1.10;99.90;;;;;;2057942;28;20260;-86
2023/04/14 00:13:27;;;;;;;8.00;2.72;;;0.90;99.90;;;;;;2042190;28;20257;-86
2023/04/14 00:14:48;;;;;;;7.95;2.88;;;1.00;99.90;;;;;;2040417;29;20188;-86
2023/04/14 00:16:11;;;;;;;4.20;2.08;;;1.00;99.90;;;;;;2035489;29;20189;-86
2023/04/14 00:17:32;;;;;;;5.38;2.90;;;2.40;99.90;;;;;;2049933;29;20187;-86
2023/04/14 00:18:53;;;;;;;6.35;2.30;;;1.00;99.90;;;;;;2046236;29;20208;-86
2023/04/14 00:20:14;;;;;;;11.48;3.95;;;1.00;99.90;;;;;;2039106;29;20260;-86
2023/04/14 00:21:35;;;;;;;7.53;2.72;;;0.70;99.90;;;;;;2057311;28;20603;-87
2023/04/14 00:22:56;;;;;;;5.32;2.53;;;0.90;99.90;;;;;;2033765;29;20198;-85
2023/04/14 00:24:17;;;;;;;4.75;2.70;;;0.90;99.90;;;;;;2056097;28;20258;-86
2023/04/14 00:25:38;;;;;;;4.78;2.25;;;0.90;99.90;;;;;;2040351;29;20268;-86
2023/04/14 00:27:00;;;;;;;4.40;2.33;;;0.90;99.90;;;;;;2058152;28;20223;-86
2023/04/14 00:28:21;;;;;;;3.25;2.20;;;0.80;99.90;;;;;;2039906;29;20193;-86
2023/04/14 00:29:42;;;;;;;7.07;2.15;;;0.90;99.90;;;;;;2036432;29;20215;-86
2023/04/14 00:31:03;;;;;;;6.60;2.40;;;0.80;99.90;;;;;;2049080;29;20192;-86
2023/04/14 00:32:24;;;;;;;10.10;2.30;;;0.90;99.90;;;;;;2039390;29;20189;-86
2023/04/14 00:33:45;;;;;;;7.32;2.00;;;0.80;99.90;;;;;;2052411;29;20239;-86
2023/04/14 00:35:06;;;;;;;8.75;2.17;;;0.90;99.90;;;;;;2049521;29;20200;-86
2023/04/14 00:36:27;;;;;;;2.70;1.67;;;0.80;99.90;;;;;;2027907;29;20193;-86
2023/04/14 00:37:49;;;;;;;10.82;2.60;;;0.80;99.90;;;;;;2043534;29;20280;-86
2023/04/14 00:39:10;;;;;;;5.50;2.17;;;0.80;99.90;;;;;;2043105;29;20201;-86
2023/04/14 00:40:31;;;;;;;6.20;2.60;;;1.00;99.90;;;;;;2051408;29;20199;-86
2023/04/14 00:41:52;;;;;;;4.43;2.33;;;0.90;99.90;;;;;;2048573;29;20219;-86
2023/04/14 00:43:18;;;;;;;8.05;2.50;;;1.00;99.90;;;;;;2065586;28;20221;-86
2023/04/14 00:44:39;;;;;;;6.22;2.33;;;1.00;99.90;;;;;;2055062;28;20692;-86
2023/04/14 00:46:00;;;;;;;8.05;2.42;;;0.90;99.90;;;;;;2048335;28;20219;-86
2023/04/14 00:47:21;;;;;;;4.40;2.38;;;0.80;99.90;;;;;;2050695;28;20231;-86
2023/04/14 00:48:43;;;;;;;9.88;3.38;;;0.80;99.90;;;;;;2070535;28;20178;-86
2023/04/14 00:50:05;;;;;;;7.82;2.92;;;0.80;99.90;;;;;;2073298;28;20200;-86
2023/04/14 00:51:26;;;;;;;5.72;2.35;;;0.80;99.90;;;;;;2066702;28;20194;-86
2023/04/14 00:52:51;;;;;;;5.95;2.35;;;0.70;99.90;;;;;;2063263;28;20250;-86
2023/04/14 00:54:18;;;;;;;4.63;2.33;;;0.70;99.90;;;;;;2047422;29;20204;-86
2023/04/14 00:55:40;;;;;;;5.00;2.35;;;0.80;99.90;;;;;;2067155;28;20197;-86
2023/04/14 00:57:02;;;;;;;11.07;3.30;;;0.80;99.90;;;;;;2069716;28;20194;-86
2023/04/14 00:58:24;;;;;;;5.53;2.03;;;1.10;99.90;;;;;;2075985;28;20204;-87
2023/04/14 00:59:45;;;;;;;8.02;2.45;;;0.90;99.90;;;;;;2057427;28;20187;-86
2023/04/14 01:01:07;;;;;;;7.55;3.03;;;0.80;99.90;;;;;;2065068;28;20202;-86
2023/04/14 01:02:28;;;;;;;11.32;2.75;;;0.80;99.90;;;;;;2062643;28;20222;-86
2023/04/14 01:03:49;;;;;;;7.32;2.35;;;0.90;99.90;;;;;;2075486;28;20221;-86
2023/04/14 01:05:10;;;;;;;11.38;2.38;;;1.00;99.90;;;;;;2060747;28;20188;-86
2023/04/14 01:06:32;;;;;;;5.35;2.03;;;1.00;99.90;;;;;;2057431;28;20195;-85
2023/04/14 01:07:54;;;;;;;11.60;3.20;;;1.00;99.90;;;;;;2066050;28;20186;-86
2023/04/14 01:09:15;;;;;;;6.25;2.50;;;1.10;99.90;;;;;;2063079;28;20191;-86
2023/04/14 01:10:43;;;;;;;5.97;1.98;;;1.10;99.90;;;;;;2070462;28;20540;-86
2023/04/14 01:12:44;;;;;;;6.45;2.15;;;1.20;99.90;;;;;;2061048;28;20198;-85
2023/04/14 01:14:15;;;;;;;6.95;2.10;;;1.20;99.90;;;;;;2068555;28;20260;-85
2023/04/14 01:15:51;;;;;;;8.90;1.98;;;1.30;99.90;;;;;;2059714;28;20207;-86
2023/04/14 01:17:48;;;;;;;7.72;2.03;;;1.30;99.90;;;;;;2061127;28;20651;-86
2023/04/14 01:19:40;;;;;;;10.88;2.95;;;1.40;99.90;;;;;;2078485;28;20197;-86
2023/04/14 01:21:08;;;;;;;6.97;2.58;;;1.40;99.90;;;;;;2048130;29;20203;-86
2023/04/14 01:22:32;;;;;;;10.95;2.40;;;1.40;99.90;;;;;;2051993;29;20202;-86
2023/04/14 01:24:20;;;;;;;7.97;2.47;;;1.40;99.90;;;;;;2064677;28;20210;-86
2023/04/14 01:26:27;;;;;;;7.57;2.40;;;1.50;99.90;;;;;;2077324;28;20221;-86
2023/04/14 01:28:18;;;;;;;8.77;2.35;;;1.50;99.90;;;;;;2069246;28;20190;-86
2023/04/14 01:30:25;;;;;;;11.15;2.75;;;1.50;99.90;;;;;;2079110;28;20186;-87
2023/04/14 01:31:53;;;;;;;7.15;1.95;;;1.50;99.90;;;;;;2060944;28;20191;-86
2023/04/14 01:33:20;;;;;;;5.63;2.15;;;1.40;99.90;;;;;;2051461;29;20263;-86
2023/04/14 01:34:53;;;;;;;9.68;2.42;;;1.40;99.90;;;;;;2067157;28;20288;-86
2023/04/14 01:36:26;;;;;;;11.32;2.10;;;1.50;99.90;;;;;;2064848;28;20191;-86
2023/04/14 01:37:51;;;;;;;6.70;1.73;;;1.50;99.90;;;;;;2055027;28;20188;-86
2023/04/14 01:39:19;;;;;;;4.03;2.17;;;1.50;99.90;;;;;;2066397;28;20186;-86
2023/04/14 01:40:49;;;;;;;9.07;2.15;;;1.50;99.90;;;;;;2062104;28;20688;-86
2023/04/14 01:42:15;;;;;;;8.57;2.63;;;1.50;99.90;;;;;;2075570;28;20602;-86
2023/04/14 01:43:43;;;;;;;13.77;2.17;;;1.40;99.90;;;;;;2063996;28;20191;-85
2023/04/14 01:45:10;;;;;;;6.15;2.20;;;1.40;99.90;;;;;;2070425;28;20205;-86
2023/04/14 01:46:35;;;;;;;5.68;2.47;;;1.40;99.90;;;;;;2069516;28;20249;-86
2023/04/14 01:47:57;;;;;;;8.93;2.00;;;1.40;99.90;;;;;;2069672;28;20189;-87
2023/04/14 01:49:20;;;;;;;5.13;2.38;;;1.40;99.90;;;;;;2057775;28;20222;-86
2023/04/14 01:50:42;;;;;;;4.55;2.28;;;1.30;99.90;;;;;;2053102;29;20242;-86
2023/04/14 01:52:08;;;;;;;5.80;1.85;;;1.40;99.90;;;;;;2064729;28;20277;-86
2023/04/14 01:53:32;;;;;;;14.88;2.80;;;1.30;99.90;;;;;;2055253;28;20215;-86
2023/04/14 01:54:56;;;;;;;11.75;2.42;;;1.30;99.90;;;;;;2060439;28;20195;-86
2023/04/14 01:56:18;;;;;;;6.32;2.30;;;1.20;99.90;;;;;;2067411;28;20194;-85
2023/04/14 01:57:40;;;;;;;6.25;2.17;;;1.20;99.90;;;;;;2069745;28;20184;-86
2023/04/14 01:59:02;;;;;;;7.70;2.53;;;1.20;99.90;;;;;;2061763;28;20187;-86
2023/04/14 02:00:25;;;;;;;5.22;2.10;;;1.20;99.90;;;;;;2066408;28;20197;-85
2023/04/14 02:01:49;;;;;;;8.45;2.50;;;1.20;99.90;;;;;;2060252;28;20202;-86
2023/04/14 02:03:11;;;;;;;4.88;2.10;;;1.10;99.90;;;;;;2067299;28;20703;-86
2023/04/14 02:04:34;;;;;;;7.55;2.30;;;1.10;99.90;;;;;;2077936;28;20193;-86
2023/04/14 02:05:55;;;;;;;5.15;2.00;;;1.10;99.90;;;;;;2055338;28;20203;-86
2023/04/14 02:07:20;;;;;;;6.70;1.63;;;1.00;99.90;;;;;;2051668;28;20228;-86
2023/04/14 02:08:42;;;;;;;7.70;1.90;;;1.00;99.90;;;;;;2075602;28;20181;-87
2023/04/14 02:10:08;;;;;;;12.23;2.58;;;1.00;99.90;;;;;;2055926;28;20195;-86
2023/04/14 02:11:31;;;;;;;6.72;2.03;;;0.90;99.90;;;;;;2058712;28;20683;-86
2023/04/14 02:12:56;;;;;;;9.15;2.10;;;1.00;99.90;;;;;;2055800;28;20179;-86
2023/04/14 02:14:19;;;;;;;2.67;1.77;;;0.90;99.90;;;;;;2072529;28;20257;-86
2023/04/14 02:15:41;;;;;;;8.38;1.77;;;0.90;99.90;;;;;;2063519;28;20194;-86
2023/04/14 02:17:04;;;;;;;7.20;2.13;;;0.90;99.90;;;;;;2074179;28;20213;-86
2023/04/14 02:18:27;;;;;;;10.32;2.67;;;0.80;99.90;;;;;;2062720;28;20194;-86
2023/04/14 02:19:50;;;;;;;5.85;2.53;;;0.90;99.90;;;;;;2074563;28;20185;-86
2023/04/14 02:21:14;;;;;;;5.80;2.20;;;1.40;99.90;;;;;;2063875;28;20221;-87
2023/04/14 02:22:35;;;;;;;11.00;3.08;;;0.70;99.90;;;;;;2067457;28;20260;-86
2023/04/14 02:23:56;;;;;;;9.32;2.65;;;0.80;99.90;;;;;;2069296;28;20289;-86
2023/04/14 02:25:17;;;;;;;7.57;2.63;;;0.90;99.90;;;;;;2069041;28;20210;-86
2023/04/14 02:26:47;;;;;;;6.88;2.00;;;1.00;99.90;;;;;;2078514;28;20197;-85
2023/04/14 02:28:17;;;;;;;7.95;2.50;;;0.90;99.90;;;;;;2064184;28;20286;-85
2023/04/14 02:29:44;;;;;;;5.68;2.22;;;0.80;99.90;;;;;;2068561;28;20667;-86
2023/04/14 02:31:10;;;;;;;5.93;2.38;;;0.80;99.90;;;;;;2053679;28;20180;-86
2023/04/14 02:32:34;;;;;;;6.07;2.60;;;0.70;99.90;;;;;;2058171;28;20195;-86
2023/04/14 02:33:56;;;;;;;7.63;2.50;;;0.80;99.90;;;;;;2067274;28;20215;-86
2023/04/14 02:35:25;;;;;;;11.70;2.75;;;0.90;99.90;;;;;;2062054;28;20197;-86
2023/04/14 02:37:00;;;;;;;10.25;2.53;;;1.00;99.90;;;;;;2067945;28;20193;-86
2023/04/14 02:38:31;;;;;;;6.00;1.95;;;1.10;99.90;;;;;;2053862;28;20184;-86
2023/04/14 02:40:01;;;;;;;5.57;2.58;;;1.10;99.90;;;;;;2075720;28;20247;-85
2023/04/14 02:41:27;;;;;;;6.65;2.53;;;1.10;99.90;;;;;;2061161;28;20179;-86
2023/04/14 02:42:59;;;;;;;9.07;2.72;;;1.20;99.90;;;;;;2073277;28;20192;-87
2023/04/14 02:44:26;;;;;;;6.28;2.30;;;1.10;99.90;;;;;;2070033;28;20278;-85
2023/04/14 02:45:49;;;;;;;16.08;3.35;;;1.20;99.90;;;;;;2063068;28;20214;-86
2023/04/14 02:47:18;;;;;;;6.55;2.15;;;1.20;99.90;;;;;;2051118;28;20204;-86
2023/04/14 02:48:41;;;;;;;7.28;2.80;;;1.20;99.90;;;;;;2075729;28;20621;-86
2023/04/14 02:50:05;;;;;;;6.60;2.83;;;1.20;99.90;;;;;;2062744;28;20174;-87
2023/04/14 02:51:27;;;;;;;5.68;2.67;;;1.10;99.90;;;;;;2072354;28;20193;-86
2023/04/14 02:52:50;;;;;;;11.68;2.30;;;1.10;99.90;;;;;;2065941;28;20183;-85
2023/04/14 02:54:12;;;;;;;4.60;2.30;;;1.00;99.90;;;;;;2059141;28;20207;-86
2023/04/14 02:55:35;;;;;;;8.25;2.88;;;0.90;99.90;;;;;;2068520;28;20257;-86
2023/04/14 02:56:56;;;;;;;9.48;2.67;;;0.90;99.90;;;;;;2063450;28;20187;-87
2023/04/14 02:58:17;;;;;;;11.18;2.25;;;0.90;99.90;;;;;;2068579;28;20604;-86
2023/04/14 02:59:41;;;;;;;7.75;2.40;;;0.80;99.90;;;;;;2060285;28;20222;-86
2023/04/14 03:01:02;;;;;;;8.13;2.38;;;0.90;99.90;;;;;;2066980;28;20285;-87
2023/04/14 03:02:24;;;;;;;7.10;1.92;;;1.00;99.90;;;;;;2062147;28;20225;-87
2023/04/14 03:03:46;;;;;;;6.97;2.22;;;1.00;99.90;;;;;;2066209;28;20186;-86
2023/04/14 03:05:08;;;;;;;12.35;3.05;;;1.10;99.90;;;;;;2069301;28;20189;-87
2023/04/14 03:06:30;;;;;;;10.38;2.72;;;1.10;99.90;;;;;;2066664;28;20197;-86
2023/04/14 03:07:53;;;;;;;15.70;3.25;;;1.10;99.90;;;;;;2060423;28;20600;-87
2023/04/14 03:09:17;;;;;;;6.57;2.40;;;1.20;99.90;;;;;;2066976;28;20565;-87
2023/04/14 03:10:38;;;;;;;8.05;1.90;;;1.20;99.90;;;;;;2069876;28;20229;-86
2023/04/14 03:12:02;;;;;;;13.52;2.20;;;1.10;99.90;;;;;;2061209;28;20250;-86
2023/04/14 03:13:27;;;;;;;6.10;2.50;;;1.10;99.90;;;;;;2046384;29;20199;-87
2023/04/14 03:14:49;;;;;;;5.60;2.40;;;1.10;99.90;;;;;;2072154;28;20181;-87
2023/04/14 03:16:12;;;;;;;5.38;2.35;;;1.10;99.90;;;;;;2051803;28;20192;-86
2023/04/14 03:17:36;;;;;;;7.78;2.30;;;1.10;99.90;;;;;;2067562;28;20194;-86
2023/04/14 03:18:58;;;;;;;6.78;2.47;;;1.00;99.90;;;;;;2064907;28;20194;-87
2023/04/14 03:20:22;;;;;;;13.27;2.38;;;1.10;99.90;;;;;;2051332;28;20251;-86
2023/04/14 03:21:45;;;;;;;8.35;2.85;;;0.90;99.90;;;;;;2057555;28;20201;-87
2023/04/14 03:23:10;;;;;;;9.52;2.85;;;0.90;99.90;;;;;;2051312;29;20196;-86
2023/04/14 03:24:33;;;;;;;9.80;2.67;;;0.90;99.90;;;;;;2054129;28;20274;-87
2023/04/14 03:25:56;;;;;;;10.50;2.50;;;1.00;99.90;;;;;;2067539;28;20211;-87
2023/04/14 03:27:21;;;;;;;10.13;2.63;;;1.00;99.90;;;;;;2061081;28;20273;-87
2023/04/14 03:28:46;;;;;;;7.50;2.30;;;1.10;99.90;;;;;;2066313;28;20248;-87
2023/04/14 03:30:10;;;;;;;8.90;2.38;;;1.10;99.90;;;;;;2062283;28;20242;-86
2023/04/14 03:31:35;;;;;;;3.95;2.15;;;1.10;99.90;;;;;;2060913;28;20188;-86
2023/04/14 03:33:04;;;;;;;10.82;2.42;;;1.00;99.90;;;;;;2061318;28;20189;-86
2023/04/14 03:34:30;;;;;;;6.57;2.10;;;1.00;99.90;;;;;;2061468;28;20663;-86
2023/04/14 03:35:53;;;;;;;7.13;2.30;;;1.10;99.90;;;;;;2063056;28;20210;-86
2023/04/14 03:37:17;;;;;;;6.35;2.38;;;1.10;99.90;;;;;;2063307;28;20198;-86
2023/04/14 03:38:41;;;;;;;6.70;2.17;;;1.00;99.90;;;;;;2062641;28;20745;-86
2023/04/14 03:40:04;;;;;;;7.32;2.53;;;1.10;99.90;;;;;;2064942;28;20243;-86
2023/04/14 03:41:28;;;;;;;10.82;2.00;;;1.00;99.90;;;;;;2070258;28;20190;-87
2023/04/14 03:42:50;;;;;;;5.60;2.13;;;1.00;99.90;;;;;;2049514;28;20184;-87
2023/04/14 03:44:14;;;;;;;9.07;2.13;;;0.90;99.90;;;;;;2075836;28;20221;-87
2023/04/14 03:45:39;;;;;;;6.47;3.00;;;0.90;99.90;;;;;;2064882;28;20235;-86
2023/04/14 03:47:02;;;;;;;4.30;2.00;;;0.80;99.90;;;;;;2076057;28;20213;-87
2023/04/14 03:48:28;;;;;;;4.68;2.03;;;0.80;99.90;;;;;;2059496;28;20192;-87
2023/04/14 03:49:55;;;;;;;8.40;2.80;;;0.70;99.90;;;;;;2068730;28;20269;-87
2023/04/14 03:51:20;;;;;;;6.03;1.95;;;0.50;99.90;;;;;;2062260;28;20225;-87
2023/04/14 03:52:43;;;;;;;19.13;2.95;;;0.60;99.90;;;;;;2065220;28;20221;-87
2023/04/14 03:54:06;;;;;;;4.90;1.92;;;0.60;99.90;;;;;;2068003;28;20244;-86
2023/04/14 03:55:31;;;;;;;6.05;1.95;;;0.60;99.90;;;;;;2077547;28;20240;-87
2023/04/14 03:56:55;;;;;;;3.85;2.20;;;0.60;99.90;;;;;;2048348;29;20200;-87
2023/04/14 03:58:17;;;;;;;7.05;2.60;;;0.70;99.90;;;;;;2051491;29;20188;-88
2023/04/14 03:59:40;;;;;;;13.38;2.40;;;0.70;99.90;;;;;;2063352;28;20260;-87
2023/04/14 04:01:02;;;;;;;9.50;3.05;;;0.70;99.90;;;;;;2062836;28;20194;-87
2023/04/14 04:02:26;;;;;;;5.28;2.15;;;0.70;99.90;;;;;;2075121;28;20791;-86
2023/04/14 04:03:47;;;;;;;5.20;2.08;;;0.70;99.90;;;;;;2072501;28;20186;-87
2023/04/14 04:05:09;;;;;;;5.97;2.30;;;0.70;99.90;;;;;;2061584;28;20647;-87
2023/04/14 04:06:32;;;;;;;8.23;2.72;;;0.70;99.90;;;;;;2061336;28;20187;-87
2023/04/14 04:07:55;;;;;;;7.60;2.15;;;0.70;99.90;;;;;;2061764;28;20223;-86
2023/04/14 04:09:18;;;;;;;6.57;2.40;;;0.70;99.90;;;;;;2069977;28;20196;-86
2023/04/14 04:10:41;;;;;;;8.15;2.40;;;1.10;99.90;;;;;;2069973;28;20253;-86
2023/04/14 04:12:03;;;;;;;6.95;2.20;;;0.70;99.90;;;;;;2066940;28;20206;-86
2023/04/14 04:13:25;;;;;;;8.13;2.50;;;0.70;99.90;;;;;;2069644;28;20253;-86
2023/04/14 04:14:46;;;;;;;7.38;2.30;;;0.60;99.90;;;;;;2062661;28;20251;-86
2023/04/14 04:16:09;;;;;;;10.25;2.50;;;0.60;99.90;;;;;;2068400;28;20194;-86
2023/04/14 04:17:32;;;;;;;5.38;2.33;;;0.70;99.90;;;;;;2064893;28;20195;-85
2023/04/14 04:18:53;;;;;;;9.63;2.90;;;0.70;99.90;;;;;;2074515;28;20194;-86
2023/04/14 04:20:15;;;;;;;11.60;2.30;;;0.70;99.90;;;;;;2061861;28;20198;-86
2023/04/14 04:21:39;;;;;;;8.88;3.63;;;0.80;99.90;;;;;;2056710;28;20226;-86
2023/04/14 04:23:03;;;;;;;8.77;3.03;;;0.70;99.90;;;;;;2066293;28;20674;-86
2023/04/14 04:24:28;;;;;;;11.52;2.58;;;0.80;99.90;;;;;;2061274;28;20222;-86
2023/04/14 04:25:49;;;;;;;7.38;2.28;;;0.80;99.90;;;;;;2075705;28;20830;-86
2023/04/14 04:27:11;;;;;;;10.18;2.47;;;0.80;99.90;;;;;;2071313;28;20553;-86
2023/04/14 04:28:32;;;;;;;7.75;2.72;;;0.80;99.90;;;;;;2067174;28;20694;-87
2023/04/14 04:29:53;;;;;;;9.05;2.13;;;0.70;99.90;;;;;;2051374;29;20295;-86
2023/04/14 04:31:15;;;;;;;8.77;3.00;;;0.80;99.90;;;;;;2065012;28;20190;-86
2023/04/14 04:32:38;;;;;;;10.38;2.28;;;0.80;99.90;;;;;;2066847;28;20190;-86
2023/04/14 04:33:59;;;;;;;7.97;2.10;;;0.60;99.90;;;;;;2075559;28;20209;-86
2023/04/14 04:35:22;;;;;;;5.43;2.45;;;0.60;99.90;;;;;;2054946;28;20188;-86
2023/04/14 04:36:45;;;;;;;9.18;2.28;;;0.70;99.90;;;;;;2071490;28;20193;-85
2023/04/14 04:38:10;;;;;;;4.47;1.95;;;0.60;99.90;;;;;;2068370;28;20592;-86
2023/04/14 04:39:31;;;;;;;4.05;1.95;;;0.70;99.90;;;;;;2067861;28;20210;-86
2023/04/14 04:40:52;;;;;;;9.02;3.03;;;0.70;99.90;;;;;;2065988;28;20185;-86
2023/04/14 04:42:13;;;;;;;9.15;2.53;;;0.60;99.90;;;;;;2059167;28;20277;-86
2023/04/14 04:43:34;;;;;;;5.20;2.10;;;0.70;99.90;;;;;;2050539;28;20271;-86
2023/04/14 04:44:55;;;;;;;7.05;3.03;;;0.70;99.90;;;;;;2070596;28;20205;-86
2023/04/14 04:46:55;;;;;;;17.90;3.53;;;0.80;99.90;;;;;;2056165;28;20215;-84
2023/04/14 04:48:16;;;;;;;10.23;3.70;;;0.80;99.90;;;;;;2058204;28;20196;-86
2023/04/14 04:49:37;;;;;;;9.90;3.03;;;0.80;99.90;;;;;;2061963;28;20251;-86
2023/04/14 04:50:58;;;;;;;9.32;3.25;;;0.90;99.90;;;;;;2067469;28;20217;-86
2023/04/14 04:52:19;;;;;;;8.80;2.45;;;0.80;99.90;;;;;;2061748;28;20599;-86
2023/04/14 04:53:40;;;;;;;16.65;3.15;;;0.90;99.90;;;;;;2066763;28;20577;-87
2023/04/14 04:55:01;;;;;;;3.03;2.40;;;1.00;99.90;;;;;;2067091;28;20193;-86
2023/04/14 04:56:22;;;;;;;13.38;3.22;;;1.00;99.90;;;;;;2070471;28;20617;-87
2023/04/14 04:57:43;;;;;;;11.50;2.25;;;1.10;99.90;;;;;;2060927;28;20246;-86
2023/04/14 04:59:04;;;;;;;7.03;2.55;;;1.00;99.90;;;;;;2060766;28;20650;-87
2023/04/14 05:00:26;;;;;;;8.20;3.10;;;1.10;99.90;;;;;;2074312;28;20190;-86
2023/04/14 05:01:47;;;;;;;10.88;2.67;;;1.10;99.90;;;;;;2063496;28;20198;-86
2023/04/14 05:03:08;;;;;;;4.82;1.98;;;1.60;99.90;;;;;;2055428;28;20199;-86
2023/04/14 05:04:29;;;;;;;6.13;2.33;;;1.00;99.90;;;;;;2060169;28;20205;-86
2023/04/14 05:05:50;;;;;;;4.90;2.60;;;1.00;99.90;;;;;;2054289;28;20231;-86
2023/04/14 05:07:11;;;;;;;4.60;2.38;;;1.00;99.90;;;;;;2060588;28;20187;-86
2023/04/14 05:08:32;;;;;;;7.78;2.83;;;1.10;99.90;;;;;;2056865;28;20187;-87
2023/04/14 05:09:53;;;;;;;9.52;2.90;;;1.00;99.90;;;;;;2066379;28;20277;-86
2023/04/14 05:11:14;;;;;;;10.52;2.78;;;1.10;99.90;;;;;;2052016;28;20184;-86
2023/04/14 05:12:35;;;;;;;8.98;3.05;;;1.10;99.90;;;;;;2072801;28;20193;-87
2023/04/14 05:13:56;;;;;;;8.98;2.70;;;1.10;99.90;;;;;;2065480;28;20230;-87
2023/04/14 05:15:17;;;;;;;9.02;3.05;;;1.10;99.90;;;;;;2073737;28;20188;-87
2023/04/14 05:16:38;;;;;;;4.82;2.90;;;1.10;99.90;;;;;;2063408;28;20202;-86
2023/04/14 05:18:00;;;;;;;11.77;2.67;;;1.20;99.90;;;;;;2074732;28;20209;-86
2023/04/14 05:19:21;;;;;;;10.55;2.95;;;1.20;99.90;;;;;;2060751;28;20659;-87
2023/04/14 05:20:42;;;;;;;10.05;3.17;;;1.20;99.90;;;;;;2059441;28;20712;-86
2023/04/14 05:22:03;;;;;;;5.38;2.40;;;1.20;99.90;;;;;;2060477;28;20245;-86
2023/04/14 05:23:24;;;;;;;10.13;3.17;;;1.10;99.90;;;;;;2066285;28;20190;-87
2023/04/14 05:24:51;;;;;;;7.88;2.78;;;1.10;99.90;;;;;;2055526;28;20188;-86
2023/04/14 05:26:13;;;;;;;9.98;2.58;;;1.00;99.90;;;;;;2061759;28;20221;-87
2023/04/14 05:27:34;;;;;;;6.30;3.05;;;1.10;99.90;;;;;;2065063;28;20186;-86
2023/04/14 05:28:55;;;;;;;8.77;3.42;;;1.20;99.90;;;;;;2068594;28;20216;-86
2023/04/14 05:30:16;;;;;;;5.28;2.25;;;1.20;99.90;;;;;;2067298;28;20210;-86
2023/04/14 05:31:37;;;;;;;5.18;2.78;;;1.30;99.90;;;;;;2067693;28;20197;-87
2023/04/14 05:32:58;;;;;;;15.73;4.20;;;1.40;99.90;;;;;;2074814;28;20181;-86
2023/04/14 05:34:19;;;;;;;9.20;3.92;;;1.50;99.90;;;;;;2070002;28;20301;-86
2023/04/14 05:35:41;;;;;;;13.13;5.00;;;1.60;99.90;;;;;;2068475;28;20226;-87
2023/04/14 05:37:02;;;;;;;17.70;4.25;;;1.50;99.90;;;;;;2053392;28;20255;-86
2023/04/14 05:38:23;;;;;;;9.90;4.25;;;1.50;99.90;;;;;;2055594;28;20199;-87
2023/04/14 05:39:44;;;;;;;9.77;4.05;;;1.50;99.90;;;;;;2065918;28;20602;-87
2023/04/14 05:41:06;;;;;;;6.95;3.65;;;1.50;99.90;;;;;;2051447;29;20195;-87
2023/04/14 05:42:27;;;;;;;17.88;6.55;;;1.50;99.90;;;;;;2056709;28;20183;-87
2023/04/14 05:43:48;;;;;;;18.92;7.50;;;1.60;99.90;;;;;;2074362;28;20222;-87
2023/04/14 05:45:10;;;;;;;14.80;5.68;;;1.60;99.90;;;;;;2063714;28;20187;-87
2023/04/14 05:46:31;;;;;;;13.48;5.13;;;1.60;99.90;;;;;;2073595;28;20236;-86
2023/04/14 05:47:52;;;;;;;13.77;4.82;;;1.90;99.90;;;;;;2063013;28;20266;-87
2023/04/14 05:49:13;;;;;;;11.02;4.63;;;1.60;99.90;;;;;;2060451;28;20190;-87
2023/04/14 05:50:34;;;;;;;13.52;4.65;;;1.40;99.90;;;;;;2066337;28;20182;-86
2023/04/14 05:51:55;;;;;;;10.48;3.35;;;1.50;99.90;;;;;;2075251;28;20193;-87
2023/04/14 05:53:16;;;;;;;5.68;3.00;;;1.50;99.90;;;;;;2060998;28;20724;-87
2023/04/14 05:54:37;;;;;;;9.98;3.63;;;1.50;99.90;;;;;;2066828;28;20194;-86
2023/04/14 05:55:58;;;;;;;8.90;2.90;;;1.60;99.90;;;;;;2056292;28;20232;-86
2023/04/14 05:57:20;;;;;;;10.48;3.20;;;1.70;99.90;;;;;;2069687;28;20998;-87
2023/04/14 05:58:41;;;;;;;10.88;2.92;;;1.70;99.90;;;;;;2061163;28;20196;-86
2023/04/14 06:00:02;;;;;;;10.50;3.25;;;1.70;99.90;;;;;;2064524;28;20191;-87
2023/04/14 06:01:23;;;;;;;9.52;2.97;;;1.80;99.90;;;;;;2059403;28;20200;-87
2023/04/14 06:02:44;;;;;;;8.27;2.55;;;1.80;99.90;;;;;;2071877;28;20195;-87
2023/04/14 06:04:05;;;;;;;12.35;3.30;;;1.90;99.90;;;;;;2060391;28;20287;-87
2023/04/14 06:05:26;;;;;;;8.32;2.90;;;1.90;99.90;;;;;;2062188;28;20191;-86
2023/04/14 06:06:47;;;;;;;9.32;2.90;;;1.80;99.90;;;;;;2052874;28;20217;-87
2023/04/14 06:08:08;;;;;;;9.38;2.90;;;1.80;99.90;;;;;;2070321;28;20272;-87
2023/04/14 06:09:30;;;;;;;7.75;2.53;;;1.90;99.90;;;;;;2062039;28;20193;-86
2023/04/14 06:10:51;;;;;;;5.90;2.80;;;2.00;99.90;;;;;;2057150;28;20680;-87
2023/04/14 06:12:13;;;;;;;8.20;2.20;;;1.90;99.90;;;;;;2074101;28;20189;-87
2023/04/14 06:13:34;;;;;;;7.60;2.75;;;2.00;99.90;;;;;;2061629;28;20656;-86
2023/04/14 06:14:55;;;;;;;6.53;2.63;;;2.10;99.90;;;;;;2064724;28;20182;-87
2023/04/14 06:16:16;;;;;;;10.60;2.30;;;2.40;99.90;;;;;;2075023;28;20191;-87
2023/04/14 06:17:38;;;;;;;6.47;2.60;;;2.10;99.90;;;;;;2061632;28;20195;-85
2023/04/14 06:18:59;;;;;;;5.47;2.42;;;2.20;99.90;;;;;;2066873;28;20229;-85
2023/04/14 06:20:20;;;;;;;4.45;2.20;;;2.30;99.90;;;;;;2050160;29;20183;-84
2023/04/14 06:21:41;;;;;;;3.63;1.60;;;2.30;99.90;;;;;;2069384;28;20461;-86
2023/04/14 06:23:03;;;;;;;8.60;1.80;;;2.20;99.90;;;;;;2061136;28;20191;-86
2023/04/14 06:24:24;;;;;;;2.63;1.67;;;2.60;99.90;;;;;;2058812;28;20207;-84
2023/04/14 06:25:46;;;;;;;7.47;1.95;;;2.40;99.90;;;;;;2071747;28;20210;-85
2023/04/14 06:27:08;;;;;;;4.30;1.52;;;2.40;99.90;;;;;;2053267;28;20190;-86
2023/04/14 06:28:29;;;;;;;9.73;1.98;;;2.40;99.90;;;;;;2068734;28;20185;-86
2023/04/14 06:29:50;;;;;;;8.82;1.80;;;2.40;99.90;;;;;;2061490;28;20179;-85
2023/04/14 06:31:13;;;;;;;3.85;1.90;;;2.60;99.90;;;;;;2057333;28;20248;-86
2023/04/14 06:32:34;;;;;;;5.38;2.20;;;2.60;99.90;;;;;;2061545;28;20191;-86
2023/04/14 06:33:55;;;;;;;1.98;1.52;;;2.80;99.90;;;;;;2063427;28;20241;-85
2023/04/14 06:35:16;;;;;;;4.07;1.98;;;2.90;99.90;;;;;;2067625;28;20188;-85
2023/04/14 06:36:37;;;;;;;4.80;1.90;;;2.80;99.90;;;;;;2070147;28;20228;-86
2023/04/14 06:37:58;;;;;;;4.30;1.77;;;2.70;99.90;;;;;;2068220;28;20690;-85
2023/04/14 06:39:20;;;;;;;6.35;1.90;;;2.70;99.90;;;;;;2069315;28;20271;-86
2023/04/14 06:40:42;;;;;;;12.38;1.90;;;2.80;99.90;;;;;;2068562;28;20194;-86
2023/04/14 06:42:03;;;;;;;7.43;1.58;;;2.80;99.90;;;;;;2068058;28;20195;-85
2023/04/14 06:43:24;;;;;;;5.50;1.77;;;2.90;99.90;;;;;;2067650;28;20197;-85
2023/04/14 06:44:45;;;;;;;2.22;1.50;;;2.90;99.90;;;;;;2066109;28;20224;-85
2023/04/14 06:46:06;;;;;;;5.07;1.23;;;2.80;99.90;;;;;;2063146;28;20218;-85
2023/04/14 06:47:27;;;;;;;5.55;1.90;;;2.70;99.90;;;;;;2074008;28;20634;-86
2023/04/14 06:48:48;;;;;;;6.13;1.58;;;2.70;99.90;;;;;;2057169;28;20589;-85
2023/04/14 06:50:11;;;;;;;2.95;1.13;;;2.70;99.90;;;;;;2057473;28;20205;-85
2023/04/14 06:51:32;;;;;;;4.38;1.48;;;2.80;99.90;;;;;;2065129;28;20203;-85
2023/04/14 06:52:53;;;;;;;7.28;1.55;;;2.80;99.90;;;;;;2058669;28;20280;-85
2023/04/14 06:54:14;;;;;;;2.90;1.50;;;2.90;99.90;;;;;;2064295;28;20205;-86
2023/04/14 06:55:39;;;;;;;3.72;1.30;;;2.90;99.90;;;;;;2050346;28;20654;-85
2023/04/14 06:57:01;;;;;;;5.22;1.60;;;3.10;99.90;;;;;;2056525;28;20218;-85
2023/04/14 06:58:22;;;;;;;2.83;1.20;;;3.20;99.90;;;;;;2070171;28;20186;-86
2023/04/14 06:59:43;;;;;;;4.85;2.00;;;3.30;99.90;;;;;;2061475;28;20269;-85
2023/04/14 07:01:04;;;;;;;12.40;2.08;;;3.50;99.90;;;;;;2071000;28;20227;-86
2023/04/14 07:02:27;;;;;;;5.40;1.40;;;3.60;99.90;;;;;;2061288;28;20246;-86
2023/04/14 07:03:48;;;;;;;5.90;2.03;;;3.60;99.90;;;;;;2064029;28;20186;-85
2023/04/14 07:05:09;;;;;;;4.78;1.25;;;3.50;99.90;;;;;;2051356;29;20543;-86
2023/04/14 07:06:31;;;;;;;3.90;1.35;;;3.50;99.90;;;;;;2066925;28;20868;-85
2023/04/14 07:07:52;;;;;;;4.30;1.42;;;3.60;99.90;;;;;;2061898;28;20265;-85
2023/04/14 07:09:13;;;;;;;5.90;1.40;;;3.50;99.90;;;;;;2066736;28;20204;-85
2023/04/14 07:10:34;;;;;;;4.57;1.20;;;3.40;99.90;;;;;;2069905;28;21102;-85
2023/04/14 07:11:56;;;;;;;5.03;1.52;;;3.50;99.90;;;;;;2066113;28;20195;-85
2023/04/14 07:13:17;;;;;;;5.45;1.30;;;3.60;99.90;;;;;;2068912;28;20194;-84
2023/04/14 07:14:39;;;;;;;5.88;1.60;;;3.60;99.90;;;;;;2054635;28;20195;-85
2023/04/14 07:16:02;;;;;;;3.65;1.50;;;3.70;99.90;;;;;;2065841;28;20233;-87
2023/04/14 07:17:23;;;;;;;3.10;1.63;;;3.70;99.90;;;;;;2059529;28;20229;-85
2023/04/14 07:18:44;;;;;;;5.28;1.35;;;4.20;99.90;;;;;;2073213;28;20203;-85
2023/04/14 07:20:07;;;;;;;4.22;1.33;;;3.80;99.90;;;;;;2055101;28;20222;-85